Weather reports worldwide

Advertisment
Wisley, United Kingdom (99080): temperature & dewpoint: 31.05.2020 12:00:00 - 06.06.2020 12:00:00 (BST)Wisley, United Kingdom (99080): temperature -20cm: 31.05.2020 12:00:00 - 06.06.2020 12:00:00 (BST)Wisley, United Kingdom (99080): wind speed & gusts: 31.05.2020 12:00:00 - 06.06.2020 12:00:00 (BST)Wisley, United Kingdom (99080): wind direction: 31.05.2020 12:00:00 - 06.06.2020 12:00:00 (BST)Wisley, United Kingdom (99080): precipitation: 31.05.2020 12:00:00 - 06.06.2020 12:00:00 (BST)
Date & Time tt [°C] td [°C] tt -20cm [°C] ff [km/h] ff [kn] fx [km/h] fx [kn] dd rr [mm]
06.06.2020 12:00:00 11,8 6,0 - 21 11 - - WSW -
06.06.2020 11:00:00 12,6 4,3 - 18 10 - - WSW 0,0
06.06.2020 10:00:00 11,9 3,2 16,5 21 11 - - WSW 0,0
06.06.2020 09:00:00 11,1 2,6 - 22 12 - - W 0,0
06.06.2020 08:00:00 10,0 3,4 - 18 10 - - W 0,0
06.06.2020 07:00:00 8,4 3,7 - 16 9 - - WSW 0,0
06.06.2020 06:00:00 7,1 3,7 - 13 7 - - W 0,0
06.06.2020 05:00:00 6,3 3,4 - 11 6 - - W 0,0
06.06.2020 04:00:00 6,6 3,6 - 11 6 - - W 0,0
06.06.2020 03:00:00 7,5 3,5 - 9 5 - - W 0,0
06.06.2020 02:00:00 8,0 4,0 - 9 5 - - W 0,0
06.06.2020 01:00:00 9,0 4,2 - 9 5 - - W 0,0
06.06.2020 00:00:00 10,1 3,7 - 9 5 - - W 0,0
05.06.2020 23:00:00 12,3 1,4 - 18 10 - - WNW 0,0
05.06.2020 22:00:00 12,7 2,4 - 13 7 - - W 0,0
05.06.2020 21:00:00 12,0 3,1 - 5 3 - - W 0,0
05.06.2020 20:00:00 14,5 1,2 - 15 8 - - NW 0,0
05.06.2020 19:00:00 14,6 2,1 - 15 8 - - NW 0,0
05.06.2020 18:00:00 14,1 3,3 - 11 6 - - NW 0,0
05.06.2020 17:00:00 16,7 3,7 - 15 8 - - W 0,0
05.06.2020 16:00:00 15,6 4,9 - 11 6 50 27 NNW 0,0
05.06.2020 15:00:00 15,5 2,9 - 18 10 - - NNW 0,0
05.06.2020 14:00:00 14,9 2,1 - 22 12 - - NW 0,0
05.06.2020 13:00:00 15,8 5,4 - 18 10 - - NW 0,0
05.06.2020 12:00:00 15,1 4,9 - 16 9 - - NW 0,0
05.06.2020 11:00:00 13,0 3,5 - 18 10 - - NW 0,0
05.06.2020 10:00:00 13,4 4,5 16,9 18 10 - - WNW 0,0
05.06.2020 09:00:00 12,6 3,8 - 16 9 - - NW 0,0
05.06.2020 08:00:00 12,1 4,3 - 15 8 - - WNW 0,0
05.06.2020 07:00:00 12,6 6,8 - 11 6 - - WNW 0,0
05.06.2020 06:00:00 11,2 9,8 - 11 6 - - W 0,0
05.06.2020 05:00:00 11,0 9,9 - 11 6 - - W 0,0
05.06.2020 04:00:00 11,0 9,5 - 11 6 - - WSW 0,0
05.06.2020 03:00:00 10,8 9,4 - 9 5 - - SW 0,0
05.06.2020 02:00:00 10,4 9,1 - 9 5 - - SW 0,0
05.06.2020 01:00:00 10,3 8,9 - 8 4 - - SW 0,0
05.06.2020 00:00:00 10,2 9,0 - 5 3 - - SSW 0,0
04.06.2020 23:00:00 10,5 9,4 - 5 3 - - SSW 0,0
04.06.2020 22:00:00 10,8 9,0 - 8 4 - - W 0,0
04.06.2020 21:00:00 10,7 8,8 - 8 4 - - WNW 0,2
04.06.2020 20:00:00 13,3 6,0 - 11 6 - - WNW 0,0
04.06.2020 19:00:00 13,0 6,6 - 4 2 - - NNW 0,0
04.06.2020 18:00:00 13,3 5,8 - 9 5 - - WNW 0,0
04.06.2020 17:00:00 13,8 5,5 - 8 4 - - WNW 0,0
04.06.2020 16:00:00 14,6 4,4 - 11 6 - - WNW 0,0
04.06.2020 15:00:00 15,0 4,4 - 13 7 - - NNW 0,0
04.06.2020 14:00:00 16,2 5,2 - 16 9 - - NW 0,0
04.06.2020 13:00:00 15,6 4,9 - 13 7 - - NNW 0,0
04.06.2020 12:00:00 14,1 3,8 - 16 9 - - NNW 0,0
04.06.2020 11:00:00 13,6 6,7 - 13 7 - - NNW 0,0
04.06.2020 10:00:00 12,0 7,7 17,7 11 6 - - NNW 0,0
04.06.2020 09:00:00 11,8 8,5 - 5 3 - - N 0,0
04.06.2020 08:00:00 10,8 7,9 - 11 6 - - NNW 0,0
04.06.2020 07:00:00 10,7 7,7 - 8 4 - - N 0,0
04.06.2020 06:00:00 10,3 7,3 - 9 5 - - N 0,0
04.06.2020 05:00:00 10,4 7,7 - 9 5 - - N 0,0
04.06.2020 04:00:00 10,4 8,1 - 11 6 - - N 0,0
04.06.2020 03:00:00 10,7 9,0 - 8 4 - - N 0,0
04.06.2020 02:00:00 10,9 9,2 - 13 7 - - N 0,2
04.06.2020 01:00:00 11,8 9,5 - 9 5 - - N 0,0
04.06.2020 00:00:00 12,6 9,3 - 11 6 - - N 0,0
03.06.2020 23:00:00 13,5 9,2 - 8 4 - - NNE 0,0
03.06.2020 22:00:00 13,7 8,9 - 11 6 - - NNE 0,0
03.06.2020 21:00:00 14,4 8,7 - 9 5 - - N 0,0
03.06.2020 20:00:00 15,0 9,0 - 13 7 - - N 0,0
03.06.2020 19:00:00 15,4 9,9 - 11 6 - - N 0,0
03.06.2020 18:00:00 15,6 10,8 - 9 5 - - N 0,0
03.06.2020 17:00:00 15,5 12,4 - 8 4 - - N 0,0
03.06.2020 16:00:00 16,8 10,9 - 9 5 - - N 0,0
03.06.2020 15:00:00 18,1 7,3 - 8 4 - - ENE 0,0
03.06.2020 14:00:00 18,5 7,4 - 8 4 - - NE 0,0
03.06.2020 13:00:00 18,3 8,5 - 8 4 - - N 0,0
03.06.2020 12:00:00 18,5 8,6 - 5 3 - - NNE 0,0
03.06.2020 11:00:00 17,4 11,4 - 8 4 - - N 0,0
03.06.2020 10:00:00 17,2 9,4 18,9 5 3 - - NNW 0,0
03.06.2020 09:00:00 15,5 9,0 - 4 2 - - NW 0,0
03.06.2020 08:00:00 13,9 9,2 - 4 2 - - SSW 0,0
03.06.2020 07:00:00 12,5 8,9 - 2 1 - - WSW 0,0
03.06.2020 06:00:00 10,6 8,5 - 4 2 - - WNW 0,0
03.06.2020 05:00:00 10,4 7,3 - 4 2 - - ESE 0,0
03.06.2020 04:00:00 10,1 7,2 - 5 3 - - SE 0,0
03.06.2020 03:00:00 9,5 6,8 - 4 2 - - S 0,0
03.06.2020 02:00:00 9,8 7,2 - 2 1 - - SSE 0,0
03.06.2020 01:00:00 10,4 6,9 - 4 2 - - SSE 0,0
03.06.2020 00:00:00 10,2 6,2 - 4 2 - - SSE 0,0
02.06.2020 23:00:00 11,9 6,5 - 5 3 - - SSE 0,0
02.06.2020 22:00:00 14,6 4,7 - 0 0 - - N 0,0
02.06.2020 21:00:00 18,9 4,2 - 4 2 - - NNW 0,0
02.06.2020 20:00:00 22,7 4,1 - 11 6 - - NNW 0,0
02.06.2020 19:00:00 24,1 4,1 - 5 3 - - NNW 0,0
02.06.2020 18:00:00 23,7 2,4 - 13 7 - - NNW 0,0
02.06.2020 17:00:00 24,5 3,3 - 9 5 - - NNW 0,0
02.06.2020 16:00:00 24,3 4,2 - 15 8 - - NNW 0,0
02.06.2020 15:00:00 24,6 5,8 - 11 6 - - NNW 0,0
02.06.2020 14:00:00 24,3 5,6 - 8 4 - - WNW 0,0
02.06.2020 13:00:00 22,7 4,6 - 8 4 - - NNE 0,0
02.06.2020 12:00:00 22,0 4,0 - 9 5 - - NNW 0,0
02.06.2020 11:00:00 21,0 7,5 - 9 5 - - NNW 0,0
02.06.2020 10:00:00 - - - - - - - - -
02.06.2020 09:00:00 - - - - - - - - -
02.06.2020 08:00:00 15,4 10,2 - 4 2 - - N 0,0
02.06.2020 07:00:00 13,7 11,0 - 5 3 - - N 0,0
02.06.2020 06:00:00 8,9 8,6 - 0 0 - - N 0,0
02.06.2020 05:00:00 8,0 7,3 - 4 2 - - N 0,0
02.06.2020 04:00:00 9,0 7,9 - 0 0 - - N 0,0
02.06.2020 03:00:00 10,4 8,3 - 2 1 - - NE 0,0
02.06.2020 02:00:00 12,4 8,4 - 4 2 - - NE 0,0
02.06.2020 01:00:00 13,5 9,1 - 4 2 - - E 0,0
02.06.2020 00:00:00 13,9 7,3 - 2 1 - - N 0,0
01.06.2020 23:00:00 17,0 7,5 - 9 5 - - E 0,0
01.06.2020 22:00:00 18,1 7,7 - 8 4 - - E 0,0
01.06.2020 21:00:00 19,8 7,5 - 5 3 - - E 0,0
01.06.2020 20:00:00 21,8 7,5 - 11 6 - - E 0,0
01.06.2020 19:00:00 23,1 6,3 - 11 6 - - E 0,0
01.06.2020 18:00:00 23,7 5,7 - 9 5 - - E 0,0
01.06.2020 17:00:00 24,0 5,3 - 13 7 - - E 0,0
01.06.2020 16:00:00 24,2 6,3 - 13 7 - - E 0,0
01.06.2020 15:00:00 24,7 7,6 - 9 5 - - ENE 0,0
01.06.2020 14:00:00 24,2 7,2 - 9 5 - - ENE 0,0
01.06.2020 13:00:00 22,8 7,2 - 11 6 - - ENE 0,0
01.06.2020 12:00:00 22,0 9,0 - 11 6 - - NNE 0,0
01.06.2020 11:00:00 20,4 8,8 - 9 5 - - NE 0,0
01.06.2020 10:00:00 19,1 10,4 18,2 5 3 - - N 0,0
01.06.2020 09:00:00 17,0 10,5 - 5 3 - - N 0,0
01.06.2020 08:00:00 15,0 9,9 - 5 3 - - NE 0,0
01.06.2020 07:00:00 13,3 10,6 - 2 1 - - N 0,0
01.06.2020 06:00:00 9,0 8,6 - 2 1 - - NE 0,0
01.06.2020 05:00:00 8,2 7,3 - 0 0 - - N 0,0
01.06.2020 04:00:00 9,0 7,5 - 2 1 - - NNE 0,0
01.06.2020 03:00:00 10,5 7,6 - 2 1 - - NE 0,0
01.06.2020 02:00:00 12,4 7,0 - 4 2 - - ENE 0,0
01.06.2020 01:00:00 13,0 6,3 - 4 2 - - ENE 0,0
01.06.2020 00:00:00 14,7 6,4 - 8 4 - - ENE 0,0
31.05.2020 23:00:00 15,6 6,4 - 9 5 - - E 0,0
31.05.2020 22:00:00 15,9 6,0 - 5 3 - - ENE 0,0
31.05.2020 21:00:00 17,0 4,9 - 13 7 - - E 0,0
31.05.2020 20:00:00 18,5 5,0 - 15 8 - - E 0,0
31.05.2020 19:00:00 19,5 5,4 - 18 10 - - E 0,0
31.05.2020 18:00:00 20,8 5,0 - 15 8 - - E 0,0
31.05.2020 17:00:00 21,4 4,0 - 18 10 - - ENE 0,0
31.05.2020 16:00:00 22,4 3,8 - 15 8 - - E 0,0
31.05.2020 15:00:00 22,9 3,4 - 15 8 - - ENE 0,0
31.05.2020 14:00:00 23,3 3,4 - 15 8 - - ENE 0,0
31.05.2020 13:00:00 23,2 3,6 - 15 8 - - E 0,0
31.05.2020 12:00:00 22,0 5,4 - 13 7 - - E 0,0

tt = temperature
td = dewpoint
tt -20cm = temperature -20cm
ff = wind speed
fx = gusts
dd = wind direction
rr = precipitation

Next stations